KLOL/LOL METAR and TAF weather

Enter ICAO airport designator
Station Type Date Time Source
KLOL METAR 2019/02/20 06:53 UTC NOAA

KLOL 200653Z AUTO 22003KT 10SM OVC110 M02/M06 A2991 RMK AO2 SLP149 T10171061


Station Type Date Time Source
KLOL Decoded METAR 2019/02/20 06:53 UTC NOAA

LOVELOCK DERBY FIELD, NV, United States (KLOL) 40-04N 118-34W 1189M
Feb 20, 2019 - 01:53 AM EST / 2019.02.20 0653 UTC
Wind: from the SW (220 degrees) at 3 MPH (3 KT):0
Visibility: 10 mile(s):0
Sky conditions: overcast
Temperature: 28.9 F (-1.7 C)
Dew Point: 21.0 F (-6.1 C)
Relative Humidity: 71%
Pressure (altimeter): 29.91 in. Hg (1012 hPa)
ob: KLOL 200653Z AUTO 22003KT 10SM OVC110 M02/M06 A2991 RMK AO2 SLP149 T10171061
cycle: 7

Station Type Date Time Source
KLOL TAF 2010/01/05 05:22 UTC NOAA

TAF KLOL 050522Z 0506/0606 00000KT 1/4SM FZFG VV001
FM052000 VRB03KT 3SM BR OVC002
AMD NOT SKED


Example: see airport list